createdAt,value
2022-08-18T00:02:02.328Z,22.64
2022-08-18T00:04:36.561Z,22.61
2022-08-18T00:07:04.304Z,22.59
2022-08-18T00:09:32.798Z,22.58
2022-08-18T00:12:01.400Z,22.57
2022-08-18T00:14:27.907Z,22.55
2022-08-18T00:16:54.404Z,22.53
2022-08-18T00:19:45.560Z,22.50
2022-08-18T00:22:08.654Z,22.46
2022-08-18T00:24:47.552Z,22.44
2022-08-18T00:27:21.609Z,22.41
2022-08-18T00:29:50.791Z,22.41
2022-08-18T00:32:22.511Z,22.41
2022-08-18T00:34:49.033Z,22.39
2022-08-18T00:37:16.039Z,22.39
2022-08-18T00:39:46.018Z,22.39
2022-08-18T00:42:28.143Z,22.38
2022-08-18T00:45:03.254Z,22.37
2022-08-18T00:47:41.873Z,22.37
2022-08-18T00:50:15.849Z,22.34
2022-08-18T00:52:49.409Z,22.30
2022-08-18T00:55:17.511Z,22.26
2022-08-18T00:57:45.205Z,22.22
2022-08-18T01:00:12.675Z,22.19
2022-08-18T01:02:44.460Z,22.16
2022-08-18T01:05:33.454Z,22.15
2022-08-18T01:08:00.564Z,22.15
2022-08-18T01:10:27.153Z,22.14
2022-08-18T01:12:55.021Z,22.12
2022-08-18T01:15:29.522Z,22.07
2022-08-18T01:18:17.245Z,22.01
2022-08-18T01:21:02.080Z,21.95
2022-08-18T01:23:29.663Z,21.91
2022-08-18T01:26:04.405Z,21.85
2022-08-18T01:28:32.480Z,21.78
2022-08-18T01:30:59.782Z,21.76
2022-08-18T01:33:31.893Z,21.75
2022-08-18T01:36:00.074Z,21.73
2022-08-18T01:38:26.543Z,21.71
2022-08-18T01:41:24.377Z,21.67
2022-08-18T01:43:40.663Z,21.61
2022-08-18T01:46:08.390Z,21.54
2022-08-18T01:48:35.663Z,21.46
2022-08-18T01:51:03.747Z,21.45
2022-08-18T01:53:30.374Z,21.46
2022-08-18T01:55:57.095Z,21.46
2022-08-18T01:58:31.403Z,21.44
2022-08-18T02:01:01.375Z,21.41
2022-08-18T02:03:30.396Z,21.35
2022-08-18T02:05:59.602Z,21.31
2022-08-18T02:08:28.893Z,21.29
2022-08-18T02:10:57.751Z,21.27
2022-08-18T02:13:25.096Z,21.27
2022-08-18T02:15:52.201Z,21.29
2022-08-18T02:18:25.738Z,21.30
2022-08-18T02:21:14.631Z,21.26
2022-08-18T02:23:53.072Z,21.25
2022-08-18T02:26:21.367Z,21.23
2022-08-18T02:28:47.843Z,21.19
2022-08-18T02:31:19.492Z,21.17
2022-08-18T02:33:51.723Z,21.13
2022-08-18T02:36:19.600Z,21.10
2022-08-18T02:38:46.167Z,21.05
2022-08-18T02:41:25.547Z,21.02
2022-08-18T02:43:55.889Z,20.97
2022-08-18T02:46:22.362Z,20.92
2022-08-18T02:48:52.231Z,20.85
2022-08-18T02:51:18.968Z,20.74
2022-08-18T02:53:46.877Z,20.70
2022-08-18T02:56:40.742Z,20.67
2022-08-18T02:59:11.184Z,20.64
2022-08-18T03:01:39.254Z,20.61
2022-08-18T03:04:09.141Z,20.58
2022-08-18T03:06:36.730Z,20.54
2022-08-18T03:09:04.038Z,20.53
2022-08-18T03:11:32.796Z,20.54
2022-08-18T03:14:00.662Z,20.54
2022-08-18T03:16:32.149Z,20.53
2022-08-18T03:19:00.922Z,20.52
2022-08-18T03:21:28.421Z,20.51
2022-08-18T03:24:00.654Z,20.50
2022-08-18T03:26:29.340Z,20.52
2022-08-18T03:28:57.222Z,20.51
2022-08-18T03:31:24.674Z,20.50
2022-08-18T03:33:55.671Z,20.50
2022-08-18T03:36:26.401Z,20.51
2022-08-18T03:38:57.006Z,20.53
2022-08-18T03:41:44.081Z,20.55
2022-08-18T03:44:23.940Z,20.57
2022-08-18T03:46:53.529Z,20.59
2022-08-18T03:49:30.026Z,20.56
2022-08-18T03:52:00.261Z,20.55
2022-08-18T03:54:28.327Z,20.55
2022-08-18T03:56:57.496Z,20.55
2022-08-18T03:59:28.841Z,20.57
2022-08-18T04:01:58.056Z,20.63
2022-08-18T04:04:29.639Z,20.70
2022-08-18T04:07:00.065Z,20.81
2022-08-18T04:09:31.417Z,20.93
2022-08-18T04:12:31.635Z,21.14
2022-08-18T04:15:10.974Z,21.43
2022-08-18T04:18:03.530Z,21.70
2022-08-18T04:21:13.218Z,21.91
2022-08-18T04:23:44.436Z,22.18
2022-08-18T04:26:19.613Z,22.44
2022-08-18T04:28:46.705Z,22.69
2022-08-18T04:31:14.646Z,22.87
2022-08-18T04:33:44.121Z,23.17
2022-08-18T04:36:12.340Z,23.40
2022-08-18T04:41:40.742Z,24.16
2022-08-18T04:44:22.346Z,24.50
2022-08-18T04:47:05.345Z,24.71
2022-08-18T04:49:40.266Z,24.90
2022-08-18T04:52:46.060Z,25.04
2022-08-18T04:55:13.484Z,24.91
2022-08-18T04:57:41.977Z,25.04
2022-08-18T05:00:24.858Z,25.35
2022-08-18T05:03:35.958Z,25.59
2022-08-18T05:06:09.394Z,25.76
2022-08-18T05:10:33.348Z,25.79
2022-08-18T05:12:52.923Z,25.86
2022-08-18T05:16:09.436Z,25.90
2022-08-18T05:18:46.248Z,26.16
2022-08-18T05:21:15.797Z,26.36
2022-08-18T05:23:44.146Z,26.57
2022-08-18T05:26:19.217Z,26.76
2022-08-18T05:28:48.281Z,27.01
2022-08-18T05:31:20.001Z,27.17
2022-08-18T05:33:47.408Z,27.45
2022-08-18T05:36:32.624Z,27.71
2022-08-18T05:39:15.194Z,27.90
2022-08-18T05:41:44.214Z,28.09
2022-08-18T05:44:14.962Z,28.33
2022-08-18T05:47:12.305Z,28.49
2022-08-18T05:50:19.741Z,28.51
2022-08-18T05:52:54.330Z,28.49
2022-08-18T05:55:54.921Z,28.53
2022-08-18T05:58:33.256Z,28.70
2022-08-18T06:01:17.282Z,28.79
2022-08-18T06:07:09.258Z,28.44
2022-08-18T06:09:51.888Z,27.79
2022-08-18T06:12:22.115Z,27.36
2022-08-18T06:14:48.994Z,27.16
2022-08-18T06:17:36.636Z,27.06
2022-08-18T06:20:14.046Z,26.94
2022-08-18T06:22:53.316Z,26.86
2022-08-18T06:25:21.876Z,26.77
2022-08-18T06:28:03.077Z,26.67
2022-08-18T06:30:39.024Z,26.59
2022-08-18T06:33:19.495Z,26.47
2022-08-18T06:36:02.086Z,26.41
2022-08-18T06:41:42.779Z,26.43
2022-08-18T06:44:23.542Z,26.37
2022-08-18T06:46:54.086Z,26.42
2022-08-18T06:49:34.104Z,26.50
2022-08-18T06:52:17.245Z,26.60
2022-08-18T06:54:49.474Z,26.72
2022-08-18T06:57:29.518Z,26.86
2022-08-18T06:59:59.472Z,26.97
2022-08-18T07:02:52.253Z,27.07
2022-08-18T07:05:21.482Z,27.23
2022-08-18T07:08:03.817Z,27.34
2022-08-18T07:10:35.722Z,27.42
2022-08-18T07:13:25.724Z,27.50
2022-08-18T07:16:12.020Z,27.61
2022-08-18T07:18:43.886Z,27.75
2022-08-18T07:21:23.362Z,27.81
2022-08-18T07:24:23.214Z,27.82
2022-08-18T07:27:06.716Z,27.87
2022-08-18T07:29:36.562Z,27.92
2022-08-18T07:32:12.567Z,27.99
2022-08-18T07:34:54.654Z,28.05
2022-08-18T07:37:28.910Z,28.10
2022-08-18T07:40:28.262Z,28.15
2022-08-18T07:43:04.467Z,28.24
2022-08-18T07:45:35.305Z,28.31
2022-08-18T07:48:37.491Z,28.36
2022-08-18T07:51:12.136Z,28.45
2022-08-18T07:53:55.671Z,28.50
2022-08-18T07:56:32.091Z,28.54
2022-08-18T07:59:12.083Z,28.63
2022-08-18T08:01:41.525Z,28.71
2022-08-18T08:04:24.999Z,28.82
2022-08-18T08:07:28.470Z,28.92
2022-08-18T08:10:01.014Z,28.92
2022-08-18T08:12:27.444Z,28.88
2022-08-18T08:15:01.597Z,28.94
2022-08-18T08:17:33.756Z,29.00
2022-08-18T08:20:03.798Z,29.04
2022-08-18T08:22:49.226Z,29.07
2022-08-18T08:25:45.143Z,29.14
2022-08-18T08:28:16.182Z,29.30
2022-08-18T08:30:51.723Z,29.37
2022-08-18T08:33:26.307Z,29.46
2022-08-18T08:35:58.194Z,29.62
2022-08-18T08:38:42.219Z,29.82
2022-08-18T08:41:22.129Z,30.00
2022-08-18T08:43:52.040Z,30.12
2022-08-18T08:46:24.211Z,30.12
2022-08-18T08:48:59.098Z,30.15
2022-08-18T08:51:45.826Z,30.25
2022-08-18T08:54:19.908Z,30.30
2022-08-18T08:56:52.823Z,30.32
2022-08-18T08:59:25.116Z,30.30
2022-08-18T09:02:44.738Z,30.27
2022-08-18T09:05:14.202Z,30.37
2022-08-18T09:07:46.951Z,30.50
2022-08-18T09:10:32.003Z,30.62
2022-08-18T09:13:11.084Z,30.69
2022-08-18T09:15:51.231Z,30.73
2022-08-18T09:18:44.311Z,30.81
2022-08-18T09:21:38.441Z,30.85
2022-08-18T09:24:14.338Z,30.86
2022-08-18T09:26:42.688Z,30.90
2022-08-18T09:29:35.488Z,30.99
2022-08-18T09:32:20.173Z,31.08
2022-08-18T09:35:09.855Z,31.20
2022-08-18T09:38:11.562Z,31.26
2022-08-18T09:41:22.771Z,31.29
2022-08-18T09:44:21.517Z,31.32
2022-08-18T09:46:55.838Z,31.36
2022-08-18T09:49:22.747Z,31.41
2022-08-18T09:51:51.189Z,31.40
2022-08-18T09:54:20.876Z,31.40
2022-08-18T09:56:53.854Z,31.43
2022-08-18T09:59:34.283Z,31.46
2022-08-18T10:02:22.695Z,31.50
2022-08-18T10:05:13.549Z,31.54
2022-08-18T10:07:43.833Z,31.53
2022-08-18T10:10:12.833Z,31.53
2022-08-18T10:13:17.812Z,31.54
2022-08-18T10:19:08.092Z,31.71
2022-08-18T10:24:55.490Z,31.62
2022-08-18T10:27:34.291Z,31.75
2022-08-18T10:30:04.136Z,31.79
2022-08-18T10:32:40.134Z,31.79
2022-08-18T10:35:32.594Z,31.77
2022-08-18T10:38:01.865Z,31.88
2022-08-18T10:40:28.980Z,31.93
2022-08-18T10:43:45.774Z,31.81
2022-08-18T10:46:42.489Z,31.79
2022-08-18T10:49:13.224Z,31.83
2022-08-18T10:52:04.573Z,31.94
2022-08-18T10:54:51.989Z,32.04
2022-08-18T10:57:21.183Z,32.08
2022-08-18T10:59:54.848Z,32.19
2022-08-18T11:02:41.254Z,32.35
2022-08-18T11:05:10.032Z,32.40
2022-08-18T11:07:53.405Z,32.40
2022-08-18T11:11:06.546Z,32.39
2022-08-18T11:13:37.135Z,32.40
2022-08-18T11:16:13.819Z,32.40
2022-08-18T11:18:45.375Z,32.42
2022-08-18T11:21:24.356Z,32.45
2022-08-18T11:24:03.137Z,32.51
2022-08-18T11:26:30.958Z,32.49
2022-08-18T11:28:57.704Z,32.50
2022-08-18T11:31:24.877Z,32.45
2022-08-18T11:33:51.540Z,32.40
2022-08-18T11:36:28.691Z,32.34
2022-08-18T11:38:55.739Z,32.37
2022-08-18T11:41:26.723Z,32.37
2022-08-18T11:44:17.319Z,32.33
2022-08-18T11:46:51.712Z,32.40
2022-08-18T11:49:33.336Z,32.51
2022-08-18T11:52:05.991Z,32.55
2022-08-18T11:54:35.945Z,32.57
2022-08-18T11:57:21.497Z,32.60
2022-08-18T11:59:54.826Z,32.63
2022-08-18T12:02:27.401Z,32.68
2022-08-18T12:05:02.880Z,32.77
2022-08-18T12:07:33.236Z,32.87
2022-08-18T12:10:26.349Z,32.90
2022-08-18T12:12:59.195Z,32.92
2022-08-18T12:15:44.421Z,32.96
2022-08-18T12:21:06.351Z,33.01
2022-08-18T12:23:39.117Z,33.06
2022-08-18T12:26:26.779Z,33.12
2022-08-18T12:29:03.134Z,33.16
2022-08-18T12:31:42.491Z,33.17
2022-08-18T12:34:24.879Z,33.16
2022-08-18T12:36:57.977Z,33.17
2022-08-18T12:39:24.687Z,33.17
2022-08-18T12:41:52.580Z,33.17
2022-08-18T12:44:20.929Z,33.17
2022-08-18T12:46:48.557Z,33.15
2022-08-18T12:49:20.116Z,33.14
2022-08-18T12:51:50.128Z,33.07
2022-08-18T12:54:18.017Z,33.01
2022-08-18T12:56:45.967Z,33.01
2022-08-18T12:59:25.825Z,33.00
2022-08-18T13:02:07.784Z,33.03
2022-08-18T13:04:46.004Z,33.08
2022-08-18T13:07:22.261Z,33.10
2022-08-18T13:09:53.543Z,33.09
2022-08-18T13:13:00.960Z,33.06
2022-08-18T13:20:28.290Z,33.01
2022-08-18T13:23:28.588Z,32.97
2022-08-18T13:26:21.522Z,32.98
2022-08-18T13:29:10.242Z,33.08
2022-08-18T13:32:05.536Z,33.10
2022-08-18T13:34:39.993Z,33.06
2022-08-18T13:37:16.690Z,33.08
2022-08-18T13:39:50.839Z,33.13
2022-08-18T13:42:57.850Z,33.17
2022-08-18T13:45:26.110Z,33.22
2022-08-18T13:47:58.542Z,33.16
2022-08-18T13:50:29.972Z,32.78
2022-08-18T13:53:00.320Z,32.54
2022-08-18T13:55:28.664Z,32.49
2022-08-18T13:57:55.932Z,32.53
2022-08-18T14:00:29.920Z,32.63
2022-08-18T14:03:00.253Z,32.70
2022-08-18T14:05:51.065Z,32.75
2022-08-18T14:08:18.956Z,32.83
2022-08-18T14:10:52.792Z,32.89
2022-08-18T14:13:24.411Z,32.94
2022-08-18T14:15:54.650Z,32.93
2022-08-18T14:18:29.254Z,32.83
2022-08-18T14:21:23.099Z,32.78
2022-08-18T14:24:10.586Z,32.78
2022-08-18T14:26:49.973Z,32.78
2022-08-18T14:29:47.340Z,32.80
2022-08-18T14:32:06.869Z,32.86
2022-08-18T14:34:33.951Z,32.81
2022-08-18T14:37:01.248Z,32.76
2022-08-18T14:39:28.395Z,32.82
2022-08-18T14:41:57.979Z,32.85
2022-08-18T14:44:38.650Z,32.86
2022-08-18T14:47:29.878Z,32.83
2022-08-18T14:50:02.926Z,32.82
2022-08-18T14:52:29.917Z,32.84
2022-08-18T14:55:03.151Z,32.85
2022-08-18T14:57:29.981Z,32.85
2022-08-18T14:59:57.931Z,32.85
2022-08-18T15:02:25.034Z,32.86
2022-08-18T15:04:53.163Z,32.86
2022-08-18T15:07:32.717Z,32.80
2022-08-18T15:10:15.694Z,32.75
2022-08-18T15:12:47.852Z,32.67
2022-08-18T15:15:17.983Z,32.61
2022-08-18T15:17:50.209Z,32.65
2022-08-18T15:20:23.908Z,32.66
2022-08-18T15:23:17.436Z,32.66
2022-08-18T15:25:54.872Z,32.63
2022-08-18T15:28:31.124Z,32.56
2022-08-18T15:31:49.472Z,32.57
2022-08-18T15:37:53.672Z,32.59
2022-08-18T15:40:57.295Z,32.58
2022-08-18T15:43:39.919Z,32.54
2022-08-18T15:47:09.462Z,32.51
2022-08-18T15:53:04.659Z,32.47
2022-08-18T15:56:11.767Z,32.47
2022-08-18T15:59:06.537Z,32.50
2022-08-18T16:00:16.072Z,32.50
2022-08-18T16:02:06.050Z,32.53
2022-08-18T16:04:57.704Z,32.53
2022-08-18T16:07:40.986Z,32.55
2022-08-18T16:11:46.419Z,32.56
2022-08-18T16:14:47.598Z,32.53
2022-08-18T16:17:39.195Z,32.48
2022-08-18T16:20:45.801Z,32.48
2022-08-18T16:23:18.079Z,32.45
2022-08-18T16:25:50.876Z,32.43
2022-08-18T16:28:34.788Z,32.41
2022-08-18T16:31:31.888Z,32.42
2022-08-18T16:34:18.995Z,32.41
2022-08-18T16:36:52.188Z,32.36
2022-08-18T16:42:33.775Z,32.22
2022-08-18T16:46:07.208Z,32.14
2022-08-18T16:48:35.561Z,32.03
2022-08-18T16:51:49.589Z,31.92
2022-08-18T16:54:28.684Z,31.79
2022-08-18T16:57:08.437Z,31.69
2022-08-18T17:00:16.330Z,31.58
2022-08-18T17:03:31.458Z,31.41
2022-08-18T17:06:32.235Z,31.22
2022-08-18T17:09:14.377Z,31.09
2022-08-18T17:11:53.477Z,30.94
2022-08-18T17:15:08.547Z,30.78
2022-08-18T17:18:01.070Z,30.62
2022-08-18T17:20:53.793Z,30.49
2022-08-18T17:23:57.739Z,30.35
2022-08-18T17:27:27.163Z,30.20
2022-08-18T17:30:05.364Z,30.05
2022-08-18T17:32:54.902Z,29.95
2022-08-18T17:35:44.023Z,29.80
2022-08-18T17:38:31.440Z,29.69
2022-08-18T17:41:25.149Z,29.57
2022-08-18T17:44:04.289Z,29.45
2022-08-18T17:47:03.113Z,29.34
2022-08-18T17:50:40.633Z,29.23
2022-08-18T17:53:11.039Z,29.09
2022-08-18T17:56:11.729Z,29.01
2022-08-18T17:58:55.849Z,28.91
2022-08-18T18:03:48.126Z,28.83
2022-08-18T18:09:08.967Z,28.62
2022-08-18T18:12:45.664Z,28.51
2022-08-18T18:15:34.719Z,28.44
2022-08-18T18:35:34.148Z,27.94
2022-08-18T18:36:58.425Z,27.80
2022-08-18T18:47:37.259Z,27.56
2022-08-18T18:49:19.447Z,27.64
2022-08-18T18:50:23.177Z,27.49
2022-08-18T18:53:14.214Z,27.45
2022-08-18T18:56:31.624Z,27.41
2022-08-18T19:00:20.584Z,27.33
2022-08-18T19:03:25.853Z,27.23
2022-08-18T19:06:04.057Z,27.13
2022-08-18T19:08:52.803Z,27.04
2022-08-18T19:11:57.460Z,26.90
2022-08-18T19:14:41.547Z,26.78
2022-08-18T19:17:20.689Z,26.67
2022-08-18T19:20:10.736Z,26.55
2022-08-18T19:23:05.749Z,26.43
2022-08-18T19:26:22.871Z,26.28
2022-08-18T19:32:16.584Z,26.00
2022-08-18T19:35:25.221Z,25.87
2022-08-18T19:41:59.511Z,25.57
2022-08-18T19:44:47.371Z,25.51
2022-08-18T19:47:40.135Z,25.46
2022-08-18T19:50:29.337Z,25.47
2022-08-18T19:53:07.375Z,25.49
2022-08-18T19:55:45.835Z,25.50
2022-08-18T19:58:12.307Z,25.49
2022-08-18T20:01:24.375Z,25.48
2022-08-18T20:03:58.677Z,25.43
2022-08-18T20:06:34.759Z,25.37
2022-08-18T20:09:02.156Z,25.34
2022-08-18T20:11:41.822Z,25.27
2022-08-18T20:14:11.445Z,25.19
2022-08-18T20:17:06.546Z,25.12
2022-08-18T20:20:14.108Z,25.04
2022-08-18T20:23:15.578Z,24.94
2022-08-18T20:25:47.164Z,24.88
2022-08-18T20:28:25.611Z,24.85
2022-08-18T20:31:31.850Z,24.82
2022-08-18T20:34:07.743Z,24.78
2022-08-18T20:36:36.666Z,24.74
2022-08-18T20:39:28.534Z,24.68
2022-08-18T20:41:55.358Z,24.62
2022-08-18T20:44:28.797Z,24.56
2022-08-18T20:46:56.266Z,24.50
2022-08-18T20:49:51.266Z,24.45
2022-08-18T20:53:00.859Z,24.41
2022-08-18T20:55:30.749Z,24.38
2022-08-18T20:58:05.492Z,24.34
2022-08-18T21:00:40.966Z,24.29
2022-08-18T21:03:12.320Z,24.23
2022-08-18T21:05:43.086Z,24.17
2022-08-18T21:08:17.479Z,24.10
2022-08-18T21:10:52.078Z,24.05
2022-08-18T21:13:41.160Z,24.01
2022-08-18T21:16:38.737Z,23.99
2022-08-18T21:19:20.305Z,23.95
2022-08-18T21:21:50.681Z,23.91
2022-08-18T21:24:33.755Z,23.88
2022-08-18T21:27:53.067Z,23.82
2022-08-18T21:31:29.218Z,23.73
2022-08-18T21:36:28.588Z,23.68
2022-08-18T21:41:15.906Z,23.54
2022-08-18T21:47:16.607Z,23.41
2022-08-18T21:50:08.347Z,23.40
2022-08-18T21:53:09.092Z,23.33
2022-08-18T22:34:09.928Z,22.73
